Time;durP1;ratioP1;P1;durP2;ratioP2;P2;SDS_P1;SDS_P2;PMS_P1;PMS_P2;Temp;Humidity;BMP_temperature;BMP_pressure;BME280_temperature;BME280_humidity;BME280_pressure;Samples;Min_cycle;Max_cycle;Signal;HPM_P1;HPM_P2
2023/01/16 00:00:17;;;;;;;7.40;3.50;;;;;;;;;;6306721;22;20018;-87
2023/01/16 00:03:02;;;;;;;8.97;3.30;;;;;;;;;;6307951;22;20018;-87
2023/01/16 00:05:46;;;;;;;5.53;3.03;;;;;;;;;;6306297;22;20017;-88
2023/01/16 00:08:31;;;;;;;7.57;2.97;;;;;;;;;;6306616;22;20018;-87
2023/01/16 00:11:16;;;;;;;7.10;3.40;;;;;;;;;;6284809;22;20061;-87
2023/01/16 00:14:01;;;;;;;7.80;3.77;;;;;;;;;;6306734;22;20021;-87
2023/01/16 00:16:45;;;;;;;9.30;2.90;;;;;;;;;;6305897;22;20041;-88
2023/01/16 00:19:29;;;;;;;5.80;2.87;;;;;;;;;;6284075;22;20018;-88
2023/01/16 00:22:14;;;;;;;6.00;2.67;;;;;;;;;;6306524;22;20069;-87
2023/01/16 00:24:58;;;;;;;6.57;2.90;;;;;;;;;;6306607;22;20491;-87
2023/01/16 00:27:43;;;;;;;5.83;2.60;;;;;;;;;;6306067;22;20037;-87
2023/01/16 00:30:28;;;;;;;6.17;2.83;;;;;;;;;;6306202;22;20017;-88
2023/01/16 00:33:12;;;;;;;8.00;3.00;;;;;;;;;;6284459;22;20064;-87
2023/01/16 00:35:57;;;;;;;5.03;2.97;;;;;;;;;;6306436;22;20014;-87
2023/01/16 00:38:42;;;;;;;6.13;2.60;;;;;;;;;;6284074;22;20030;-87
2023/01/16 00:41:26;;;;;;;8.47;2.90;;;;;;;;;;6306286;22;20065;-87
2023/01/16 00:44:11;;;;;;;3.97;2.33;;;;;;;;;;6284621;22;20022;-87
2023/01/16 00:46:55;;;;;;;8.97;2.60;;;;;;;;;;6306249;22;20018;-87
2023/01/16 00:49:40;;;;;;;7.13;2.70;;;;;;;;;;6284235;22;20104;-87
2023/01/16 00:52:24;;;;;;;10.57;2.63;;;;;;;;;;6306201;22;20022;-88
2023/01/16 00:55:09;;;;;;;10.13;2.77;;;;;;;;;;6306293;22;20014;-88
2023/01/16 00:57:54;;;;;;;6.97;2.67;;;;;;;;;;6307042;22;20019;-87
2023/01/16 01:00:38;;;;;;;5.10;2.53;;;;;;;;;;6305893;22;20040;-87
2023/01/16 01:03:23;;;;;;;8.70;2.87;;;;;;;;;;6284391;22;20102;-87
2023/01/16 01:06:08;;;;;;;11.20;2.80;;;;;;;;;;6306048;22;20053;-87
2023/01/16 01:08:52;;;;;;;10.17;3.43;;;;;;;;;;6305373;22;20034;-87
2023/01/16 01:11:37;;;;;;;10.43;3.13;;;;;;;;;;6306788;22;20114;-87
2023/01/16 01:14:21;;;;;;;4.63;2.47;;;;;;;;;;6305977;22;20045;-87
2023/01/16 01:17:06;;;;;;;7.67;3.17;;;;;;;;;;6306279;22;20084;-87
2023/01/16 01:19:50;;;;;;;5.80;3.40;;;;;;;;;;6305527;22;20511;-87
2023/01/16 01:22:35;;;;;;;7.90;2.60;;;;;;;;;;6305467;22;20018;-88
2023/01/16 01:25:20;;;;;;;4.90;2.80;;;;;;;;;;6307180;22;20014;-87
2023/01/16 01:28:04;;;;;;;8.83;2.87;;;;;;;;;;6305825;22;20014;-87
2023/01/16 01:30:49;;;;;;;7.20;3.27;;;;;;;;;;6283808;22;20017;-87
2023/01/16 01:33:34;;;;;;;8.10;2.83;;;;;;;;;;6284065;22;20520;-87
2023/01/16 01:36:18;;;;;;;9.80;3.10;;;;;;;;;;6307413;22;20010;-87
2023/01/16 01:39:03;;;;;;;5.67;2.47;;;;;;;;;;6305937;22;20102;-87
2023/01/16 01:41:47;;;;;;;9.17;2.90;;;;;;;;;;6283622;22;20321;-87
2023/01/16 01:45:05;;;;;;;11.33;3.30;;;3.40;99.90;;;;;;6305912;22;20010;-88
2023/01/16 01:48:03;;;;;;;11.93;2.67;;;3.30;99.90;;;;;;6299772;22;20010;-87
2023/01/16 01:50:48;;;;;;;7.63;2.80;;;;;;;;;;6306547;22;20072;-88
2023/01/16 01:53:37;;;;;;;8.37;2.67;;;3.50;99.90;;;;;;6307063;22;20384;-88
2023/01/16 01:56:24;;;;;;;8.40;3.00;;;;;;;;;;6306960;22;20056;-87
2023/01/16 01:59:24;;;;;;;8.13;3.07;;;3.60;99.90;;;;;;6305686;22;20064;-87
2023/01/16 02:02:16;;;;;;;6.60;2.90;;;3.60;99.90;;;;;;6306931;22;20076;-87
2023/01/16 02:05:03;;;;;;;16.80;2.87;;;3.60;99.90;;;;;;6305102;22;20053;-87
2023/01/16 02:07:48;;;;;;;7.57;3.10;;;3.70;99.90;;;;;;6306300;22;20061;-87
2023/01/16 02:10:36;;;;;;;8.33;2.77;;;;;;;;;;6262084;22;20068;-87
2023/01/16 02:13:21;;;;;;;8.00;2.33;;;;;;;;;;6305632;22;20021;-87
2023/01/16 02:19:33;;;;;;;6.90;3.05;;;3.70;99.90;;;;;;6306396;22;20014;-87
2023/01/16 02:22:51;;;;;;;13.87;2.67;;;3.80;99.90;;;;;;6305717;22;20057;-87
2023/01/16 02:26:20;;;;;;;9.00;2.30;;;3.80;99.90;;;;;;6305562;22;20072;-86
2023/01/16 02:29:32;;;;;;;9.30;2.80;;;;;;;;;;6304921;22;20026;-87
2023/01/16 02:32:51;;;;;;;6.93;2.23;;;3.80;99.90;;;;;;6305359;22;20018;-87
2023/01/16 02:35:54;;;;;;;8.23;2.93;;;;;;;;;;6300530;22;20065;-87
2023/01/16 02:39:06;;;;;;;7.73;2.40;;;3.80;99.90;;;;;;6306471;22;20052;-88
2023/01/16 02:42:22;;;;;;;10.50;2.80;;;3.80;99.90;;;;;;6304591;22;20076;-87
2023/01/16 02:45:09;;;;;;;6.70;2.77;;;;;;;;;;6304776;22;20017;-87
2023/01/16 02:48:00;;;;;;;9.53;2.40;;;;;;;;;;6306133;22;20435;-88
2023/01/16 02:50:52;;;;;;;5.07;2.57;;;3.60;99.90;;;;;;6305279;22;20014;-87
2023/01/16 02:53:39;;;;;;;5.60;3.03;;;;;;;;;;6305298;22;20034;-87
2023/01/16 02:56:30;;;;;;;8.50;3.20;;;3.60;99.90;;;;;;6305338;22;20452;-87
2023/01/16 02:59:17;;;;;;;6.80;2.57;;;3.50;99.90;;;;;;6305333;22;20011;-87
2023/01/16 03:02:02;;;;;;;9.10;2.60;;;;;;;;;;6304834;22;20095;-87
2023/01/16 03:04:49;;;;;;;8.03;2.33;;;;;;;;;;6305313;22;20464;-87
2023/01/16 03:07:49;;;;;;;9.30;2.40;;;;;;;;;;6305490;22;20334;-87
2023/01/16 03:10:49;;;;;;;14.30;3.50;;;;;;;;;;6305349;22;20010;-87
2023/01/16 03:13:33;;;;;;;14.30;2.50;;;;;;;;;;6306343;22;20061;-87
2023/01/16 03:16:39;;;;;;;11.30;2.63;;;3.50;99.90;;;;;;6305135;22;20038;-87
2023/01/16 03:19:24;;;;;;;11.00;2.60;;;;;;;;;;6306694;22;20014;-87
2023/01/16 03:22:08;;;;;;;6.87;2.67;;;;;;;;;;6304567;22;20149;-87
2023/01/16 03:24:56;;;;;;;10.57;2.63;;;;;;;;;;6304781;22;20014;-89
2023/01/16 03:28:11;;;;;;;10.57;3.03;;;3.40;99.90;;;;;;6305116;22;20084;-87
2023/01/16 03:31:15;;;;;;;10.75;3.03;;;3.40;99.90;;;;;;6266490;22;20013;-87
2023/01/16 03:34:12;;;;;;;5.68;2.72;;;3.40;99.90;;;;;;6307704;22;20449;-87
2023/01/16 03:37:01;;;;;;;9.47;3.07;;;;;;;;;;6306589;22;20448;-87
2023/01/16 03:39:53;;;;;;;11.33;2.77;;;3.40;99.90;;;;;;6306996;22;20061;-87
2023/01/16 03:42:38;;;;;;;11.50;3.00;;;;;;;;;;6307004;22;20018;-87
2023/01/16 03:45:39;;;;;;;9.23;3.20;;;3.50;99.90;;;;;;6307002;22;20011;-87
2023/01/16 03:48:58;;;;;;;9.03;4.00;;;3.50;99.90;;;;;;6307117;22;20384;-87
2023/01/16 03:51:47;;;;;;;8.07;3.33;;;3.50;99.90;;;;;;6308016;22;20022;-87
2023/01/16 03:54:32;;;;;;;9.03;3.60;;;;;;;;;;6306852;22;20499;-88
2023/01/16 03:57:26;;;;;;;12.37;4.07;;;3.50;99.90;;;;;;6306322;22;20068;-88
2023/01/16 04:00:12;;;;;;;7.85;4.05;;;3.50;99.90;;;;;;6307487;22;20015;-87
2023/01/16 04:03:11;;;;;;;12.07;3.90;;;3.60;99.90;;;;;;6307927;22;20030;-87
2023/01/16 04:05:59;;;;;;;15.43;4.40;;;;;;;;;;6308131;22;20090;-87
2023/01/16 04:08:45;;;;;;;18.40;7.30;;;;;;;;;;6306727;22;20388;-87
2023/01/16 04:11:33;;;;;;;9.27;4.40;;;;;;;;;;6285008;22;20026;-87
2023/01/16 04:14:20;;;;;;;10.93;5.70;;;;;;;;;;6307369;22;20037;-87
2023/01/16 04:17:06;;;;;;;8.43;4.50;;;3.80;99.90;;;;;;6305980;22;20022;-87
2023/01/16 04:19:50;;;;;;;12.70;4.67;;;;;;;;;;6285123;22;20033;-87
2023/01/16 04:22:35;;;;;;;12.20;4.57;;;;;;;;;;6306746;22;20061;-87
2023/01/16 04:25:20;;;;;;;8.87;5.00;;;;;;;;;;6307273;22;20018;-87
2023/01/16 04:28:05;;;;;;;8.27;4.43;;;;;;;;;;6305997;22;20334;-88
2023/01/16 04:30:50;;;;;;;16.37;5.70;;;;;;;;;;6307807;22;20049;-87
2023/01/16 04:33:34;;;;;;;11.50;5.97;;;;;;;;;;6306400;22;20090;-87
2023/01/16 04:36:19;;;;;;;10.03;4.93;;;;;;;;;;6305785;22;20543;-87
2023/01/16 04:39:03;;;;;;;10.30;5.60;;;;;;;;;;6307046;22;20340;-88
2023/01/16 04:41:50;;;;;;;18.13;7.33;;;;;;;;;;6284406;22;20023;-87
2023/01/16 04:44:35;;;;;;;12.70;6.00;;;;;;;;;;6285419;22;20017;-87
2023/01/16 04:47:19;;;;;;;11.30;6.30;;;;;;;;;;6306983;22;20013;-87
2023/01/16 04:50:04;;;;;;;14.30;6.37;;;;;;;;;;6305782;22;20010;-89
2023/01/16 04:52:49;;;;;;;9.70;6.10;;;;;;;;;;6306242;22;20026;-87
2023/01/16 04:55:34;;;;;;;10.63;6.37;;;;;;;;;;6306525;22;20049;-87
2023/01/16 04:58:18;;;;;;;15.53;6.83;;;;;;;;;;6283885;22;20342;-87
2023/01/16 05:01:05;;;;;;;15.90;7.77;;;;;;;;;;6284537;22;20076;-88
2023/01/16 05:03:50;;;;;;;15.33;7.93;;;;;;;;;;6306448;22;20099;-88
2023/01/16 05:06:35;;;;;;;17.13;8.67;;;;;;;;;;6306250;22;20056;-87
2023/01/16 05:09:19;;;;;;;17.10;8.23;;;;;;;;;;6306942;22;20341;-87
2023/01/16 05:12:04;;;;;;;20.40;9.30;;;;;;;;;;6284157;22;20068;-87
2023/01/16 05:14:49;;;;;;;15.03;9.07;;;;;;;;;;6306105;22;20341;-87
2023/01/16 05:17:33;;;;;;;15.90;9.00;;;;;;;;;;6284451;22;20098;-87
2023/01/16 05:20:18;;;;;;;16.73;9.50;;;;;;;;;;6306688;22;20060;-87
2023/01/16 05:23:05;;;;;;;16.03;8.47;;;;;;;;;;6284348;22;20023;-87
2023/01/16 05:25:51;;;;;;;18.40;9.23;;;;;;;;;;6306010;22;20428;-87
2023/01/16 05:28:36;;;;;;;20.67;10.80;;;4.00;99.90;;;;;;6306064;22;20019;-86
2023/01/16 05:31:21;;;;;;;17.33;8.97;;;;;;;;;;6283662;22;20474;-87
2023/01/16 05:34:05;;;;;;;19.47;10.03;;;;;;;;;;6305746;22;20014;-87
2023/01/16 05:36:50;;;;;;;20.23;10.43;;;;;;;;;;6307245;22;20354;-87
2023/01/16 05:39:34;;;;;;;15.70;9.93;;;;;;;;;;6306575;22;20090;-87
2023/01/16 05:42:24;;;;;;;22.07;10.33;;;;;;;;;;6306375;22;20029;-87
2023/01/16 05:45:09;;;;;;;18.40;9.37;;;;;;;;;;6305927;22;20334;-87
2023/01/16 05:47:54;;;;;;;20.63;10.87;;;;;;;;;;6305542;22;20010;-87
2023/01/16 05:50:38;;;;;;;20.80;11.00;;;;;;;;;;6305822;22;20068;-87
2023/01/16 05:53:23;;;;;;;19.80;11.50;;;;;;;;;;6304839;22;20325;-87
2023/01/16 05:56:08;;;;;;;19.53;11.80;;;;;;;;;;6305628;22;20460;-88
2023/01/16 05:58:53;;;;;;;21.10;11.10;;;;;;;;;;6283702;22;20452;-90
2023/01/16 06:01:38;;;;;;;25.50;11.60;;;;;;;;;;6305088;22;20018;-87
2023/01/16 06:04:23;;;;;;;24.27;12.00;;;;;;;;;;6283267;22;20015;-88
2023/01/16 06:07:07;;;;;;;21.30;11.87;;;;;;;;;;6306786;22;20070;-86
2023/01/16 06:09:52;;;;;;;26.00;11.40;;;;;;;;;;6306627;22;20078;-87
2023/01/16 06:12:36;;;;;;;29.10;12.03;;;;;;;;;;6304920;22;20021;-87
2023/01/16 06:15:21;;;;;;;20.73;10.80;;;;;;;;;;6304891;22;20402;-87
2023/01/16 06:18:06;;;;;;;28.77;11.60;;;;;;;;;;6306348;22;20054;-88
2023/01/16 06:20:51;;;;;;;19.63;10.63;;;;;;;;;;6283529;22;20394;-86
2023/01/16 06:23:36;;;;;;;23.97;10.57;;;;;;;;;;6304748;22;20045;-87
2023/01/16 06:26:20;;;;;;;18.87;10.00;;;;;;;;;;6282932;22;20018;-87
2023/01/16 06:29:05;;;;;;;21.17;9.23;;;;;;;;;;6305389;22;20452;-87
2023/01/16 06:31:49;;;;;;;16.60;8.50;;;;;;;;;;6305258;22;20099;-87
2023/01/16 06:34:34;;;;;;;17.20;9.07;;;;;;;;;;6276301;22;20022;-91
2023/01/16 06:37:18;;;;;;;21.40;9.17;;;;;;;;;;6282139;22;20483;-89
2023/01/16 06:40:03;;;;;;;15.87;7.93;;;;;;;;;;6302715;22;20014;-87
2023/01/16 06:42:47;;;;;;;21.03;9.43;;;;;;;;;;6302584;22;20365;-87
2023/01/16 06:45:32;;;;;;;18.97;8.00;;;;;;;;;;6304858;22;20380;-87
2023/01/16 06:48:17;;;;;;;19.23;8.17;;;;;;;;;;6305195;22;20452;-86
2023/01/16 06:51:01;;;;;;;13.63;8.13;;;;;;;;;;6305045;22;20034;-86
2023/01/16 06:53:46;;;;;;;22.77;8.67;;;;;;;;;;6283385;22;20026;-86
2023/01/16 06:56:31;;;;;;;15.10;8.13;;;;;;;;;;6305804;22;20113;-86
2023/01/16 06:59:15;;;;;;;18.60;7.43;;;;;;;;;;6305419;22;20022;-86
2023/01/16 07:02:00;;;;;;;15.43;7.93;;;;;;;;;;6283506;22;20149;-86
2023/01/16 07:04:44;;;;;;;16.70;7.57;;;;;;;;;;6305572;22;20487;-86
2023/01/16 07:07:29;;;;;;;14.93;6.53;;;;;;;;;;6284271;22;20156;-85
2023/01/16 07:10:14;;;;;;;13.73;6.43;;;;;;;;;;6284838;22;20449;-86
2023/01/16 07:12:58;;;;;;;12.23;5.70;;;;;;;;;;6308010;22;20022;-86
2023/01/16 07:24:39;;;;;;;16.27;6.43;;;3.40;99.90;;;;;;6306386;22;20483;-86
2023/01/16 07:27:24;;;;;;;15.03;6.27;;;;;;;;;;6284252;22;20503;-87
2023/01/16 07:30:09;;;;;;;15.73;7.30;;;;;;;;;;6306477;22;20101;-85
2023/01/16 07:32:54;;;;;;;20.30;6.77;;;;;;;;;;6284853;22;20053;-85
2023/01/16 07:35:39;;;;;;;15.93;6.73;;;;;;;;;;6307337;22;20061;-85
2023/01/16 07:38:23;;;;;;;15.53;6.87;;;;;;;;;;6284869;22;20018;-85
2023/01/16 07:41:08;;;;;;;20.23;6.90;;;;;;;;;;6307781;22;20068;-87
2023/01/16 07:43:53;;;;;;;12.67;6.00;;;;;;;;;;6306371;22;20149;-85
2023/01/16 07:46:37;;;;;;;14.53;6.60;;;;;;;;;;6310662;22;20069;-85
2023/01/16 07:49:22;;;;;;;15.47;6.07;;;;;;;;;;6284681;22;20029;-86
2023/01/16 07:52:06;;;;;;;14.73;7.23;;;;;;;;;;6306693;22;20076;-85
2023/01/16 07:54:51;;;;;;;20.87;6.67;;;;;;;;;;6284302;22;20065;-85
2023/01/16 07:57:36;;;;;;;15.13;6.90;;;3.40;99.90;;;;;;6307404;22;20014;-86
2023/01/16 08:00:21;;;;;;;14.37;6.47;;;;;;;;;;6306555;22;20090;-86
2023/01/16 08:03:06;;;;;;;13.00;6.13;;;;;;;;;;6306594;22;20061;-88
2023/01/16 08:05:55;;;;;;;17.27;6.43;;;3.40;99.90;;;;;;6307472;22;20057;-88
2023/01/16 08:08:40;;;;;;;16.50;7.57;;;;;;;;;;6307097;22;20064;-86
2023/01/16 08:11:38;;;;;;;13.17;6.63;;;;;;;;;;6306450;22;20042;-87
2023/01/16 08:14:22;;;;;;;11.30;5.43;;;;;;;;;;6287786;22;20018;-86
2023/01/16 08:17:08;;;;;;;12.23;6.43;;;;;;;;;;6305804;22;20089;-86
2023/01/16 08:19:52;;;;;;;10.63;5.83;;;;;;;;;;6305710;22;20441;-87
2023/01/16 08:22:49;;;;;;;13.20;6.33;;;3.50;99.90;;;;;;6283644;22;20022;-86
2023/01/16 08:25:34;;;;;;;13.73;5.50;;;;;;;;;;6306999;22;20030;-86
2023/01/16 08:28:19;;;;;;;12.17;5.70;;;;;;;;;;6305324;22;20030;-85
2023/01/16 08:31:11;;;;;;;14.93;6.20;;;3.50;99.90;;;;;;6306370;22;20090;-86
2023/01/16 08:33:55;;;;;;;14.47;6.27;;;;;;;;;;6306837;22;20022;-86
2023/01/16 08:36:40;;;;;;;10.90;6.17;;;;;;;;;;6307350;22;20053;-86
2023/01/16 08:39:26;;;;;;;14.00;6.33;;;;;;;;;;6306188;22;20014;-86
2023/01/16 08:51:27;;;;;;;10.27;5.30;;;;;;;;;;6307293;22;20065;-85
2023/01/16 08:54:11;;;;;;;13.37;5.70;;;;;;;;;;6307765;22;20014;-86
2023/01/16 08:56:56;;;;;;;14.27;5.23;;;;;;;;;;6305697;22;20118;-86
2023/01/16 08:59:40;;;;;;;14.70;5.20;;;;;;;;;;6305696;22;20010;-85
2023/01/16 09:02:26;;;;;;;11.13;5.10;;;3.70;99.90;;;;;;6306101;22;20026;-85
2023/01/16 09:05:12;;;;;;;9.93;5.20;;;;;;;;;;6306011;22;20353;-87
2023/01/16 09:07:57;;;;;;;11.00;5.00;;;;;;;;;;6305508;22;20338;-85
2023/01/16 09:13:48;;;;;;;7.90;5.80;;;;;;;;;;6305597;22;20153;-86
2023/01/16 09:13:49;;;;;;;13.23;4.90;;;;;;;;;;6306695;22;20460;-86
2023/01/16 09:16:34;;;;;;;13.13;4.37;;;;;;;;;;6305455;22;20022;-86
2023/01/16 09:19:19;;;;;;;14.63;4.93;;;;;;;;;;6284178;22;20441;-85
2023/01/16 09:22:07;;;;;;;9.43;4.20;;;3.90;99.90;;;;;;6283723;22;20061;-86
2023/01/16 09:24:52;;;;;;;8.03;4.37;;;;;;;;;;6305589;22;20090;-86
2023/01/16 09:27:37;;;;;;;8.60;3.60;;;;;;;;;;6304386;22;20065;-86
2023/01/16 09:30:22;;;;;;;9.17;4.20;;;;;;;;;;6304698;22;20019;-87
2023/01/16 09:33:06;;;;;;;8.17;4.13;;;;;;;;;;6305108;22;20073;-86
2023/01/16 09:35:51;;;;;;;7.33;3.30;;;;;;;;;;6306317;22;20018;-86
2023/01/16 09:38:35;;;;;;;9.50;3.90;;;;;;;;;;6305507;22;20017;-87
2023/01/16 09:44:24;;;;;;;8.50;3.53;;;;;;;;;;6306830;22;20076;-85
2023/01/16 09:47:08;;;;;;;8.23;3.60;;;4.00;99.90;;;;;;6306215;22;20011;-86
2023/01/16 09:50:04;;;;;;;7.47;4.07;;;4.10;99.90;;;;;;6305045;22;20394;-86
2023/01/16 09:59:31;;;;;;;8.43;3.90;;;4.10;99.90;;;;;;6305357;22;20072;-85
2023/01/16 10:02:27;;;;;;;7.73;3.33;;;4.10;99.90;;;;;;6307065;22;20014;-85
2023/01/16 10:05:13;;;;;;;11.70;3.50;;;;;;;;;;6305858;22;20094;-87
2023/01/16 10:08:17;;;;;;;11.40;4.70;;;4.00;99.90;;;;;;6306334;22;20480;-85
2023/01/16 10:11:26;;;;;;;6.80;3.17;;;4.10;99.90;;;;;;6306177;22;20330;-86
2023/01/16 10:14:37;;;;;;;6.47;3.03;;;4.10;99.90;;;;;;6305048;22;20042;-87
2023/01/16 10:17:33;;;;;;;6.90;4.40;;;;;;;;;;6304864;22;20026;-86
2023/01/16 10:20:52;;;;;;;5.63;3.07;;;4.10;99.90;;;;;;6304911;22;20010;-86
2023/01/16 10:23:50;;;;;;;8.30;3.40;;;4.10;99.90;;;;;;6243598;22;20014;-85
2023/01/16 10:27:00;;;;;;;4.47;2.23;;;4.10;99.90;;;;;;6305003;22;20097;-86
2023/01/16 10:29:53;;;;;;;6.93;2.57;;;4.10;99.90;;;;;;6304917;22;20009;-85
2023/01/16 10:32:51;;;;;;;6.47;2.53;;;4.10;99.90;;;;;;6306115;22;20102;-86
2023/01/16 10:35:45;;;;;;;5.87;2.40;;;4.00;99.90;;;;;;6306267;22;20025;-85
2023/01/16 10:38:42;;;;;;;5.50;2.50;;;4.10;99.90;;;;;;6304930;22;20029;-86
2023/01/16 10:50:45;;;;;;;5.50;2.70;;;3.90;99.90;;;;;;6307291;22;20073;-87
2023/01/16 10:53:30;;;;;;;4.23;2.10;;;;;;;;;;6307055;22;20018;-87
2023/01/16 10:56:15;;;;;;;3.93;2.00;;;;;;;;;;6284536;22;20149;-88
2023/01/16 10:58:59;;;;;;;6.37;2.00;;;;;;;;;;6307657;22;20042;-87
2023/01/16 11:01:44;;;;;;;4.93;1.97;;;;;;;;;;6285328;22;20049;-86
2023/01/16 11:04:35;;;;;;;2.87;2.10;;;3.70;99.90;;;;;;6308205;22;20386;-87
2023/01/16 11:07:20;;;;;;;7.13;2.30;;;;;;;;;;6309687;22;20104;-85
2023/01/16 11:10:05;;;;;;;6.03;1.77;;;;;;;;;;6309045;22;20025;-87
2023/01/16 11:19:24;;;;;;;5.20;2.00;;;3.60;99.90;;;;;;6307596;22;20030;-85
2023/01/16 11:22:23;;;;;;;3.70;2.30;;;3.60;99.90;;;;;;6306285;22;20106;-85
2023/01/16 11:25:17;;;;;;;6.33;2.40;;;3.60;99.90;;;;;;6307838;22;20014;-85
2023/01/16 11:28:06;;;;;;;5.17;2.47;;;3.60;99.90;;;;;;6307853;22;20014;-85
2023/01/16 11:30:57;;;;;;;6.40;3.17;;;3.60;99.90;;;;;;6308219;22;20014;-85
2023/01/16 11:33:47;;;;;;;4.93;2.97;;;3.60;99.90;;;;;;6308173;22;20023;-84
2023/01/16 11:36:34;;;;;;;4.53;2.80;;;3.60;99.90;;;;;;6307764;22;20014;-85
2023/01/16 11:39:21;;;;;;;10.50;3.47;;;3.60;99.90;;;;;;6306051;22;20010;-86
2023/01/16 11:46:02;;;;;;;5.10;3.10;;;3.70;99.90;;;;;;6305992;22;20065;-85
2023/01/16 11:48:23;;;;;;;6.97;3.23;;;;;;;;;;6307184;22;20525;-85
2023/01/16 11:51:14;;;;;;;6.63;3.57;;;3.70;99.90;;;;;;6302991;22;20127;-84
2023/01/16 11:53:59;;;;;;;6.77;2.80;;;;;;;;;;6305480;22;20022;-87
2023/01/16 11:56:56;;;;;;;5.10;3.00;;;3.70;99.90;;;;;;6306823;22;20015;-86
2023/01/16 11:59:41;;;;;;;4.20;2.73;;;;;;;;;;6306575;22;20010;-87
2023/01/16 12:03:02;;;;;;;5.80;2.90;;;3.70;99.90;;;;;;6304590;22;20060;-88
2023/01/16 12:05:53;;;;;;;4.60;2.73;;;;;;;;;;6306690;22;20071;-86
2023/01/16 12:08:50;;;;;;;4.20;3.03;;;3.80;99.90;;;;;;6305400;22;20014;-86
2023/01/16 12:11:35;;;;;;;3.87;2.57;;;;;;;;;;6306169;22;20011;-86
2023/01/16 12:14:21;;;;;;;5.20;2.47;;;;;;;;;;6303846;22;20444;-86
2023/01/16 12:17:46;;;;;;;3.87;2.10;;;3.80;99.90;;;;;;6306447;22;20018;-86
2023/01/16 12:20:45;;;;;;;3.97;2.40;;;3.80;99.90;;;;;;6181491;23;20016;-87
2023/01/16 12:23:35;;;;;;;3.57;2.20;;;3.80;99.90;;;;;;6160302;23;20012;-88
2023/01/16 12:26:27;;;;;;;5.87;2.30;;;3.80;99.90;;;;;;6306399;22;20015;-87
2023/01/16 12:29:12;;;;;;;7.83;2.50;;;;;;;;;;6304572;22;20026;-87
2023/01/16 12:32:04;;;;;;;4.20;2.50;;;3.90;99.90;;;;;;6306014;22;20107;-87
2023/01/16 12:35:16;;;;;;;6.40;2.50;;;3.90;99.90;;;;;;6305193;22;20013;-87
2023/01/16 12:38:19;;;;;;;9.83;3.30;;;4.00;99.90;;;;;;6304972;22;20387;-88
2023/01/16 12:44:24;;;;;;;10.73;4.73;;;;;;;;;;6305720;22;20022;-87
2023/01/16 12:47:42;;;;;;;11.07;3.73;;;4.10;99.90;;;;;;6306372;22;20014;-88
2023/01/16 12:50:27;;;;;;;6.03;2.40;;;;;;;;;;6304848;22;20046;-87
2023/01/16 12:53:28;;;;;;;5.93;2.23;;;4.10;99.90;;;;;;6303298;22;20081;-87
2023/01/16 12:56:21;;;;;;;4.83;2.37;;;4.20;99.90;;;;;;6305636;22;20052;-88
2023/01/16 12:59:21;;;;;;;4.50;2.27;;;4.20;99.90;;;;;;6306087;22;20014;-86
2023/01/16 13:02:17;;;;;;;4.33;2.27;;;;;;;;;;6306281;22;20014;-87
2023/01/16 13:05:18;;;;;;;5.60;2.40;;;4.20;99.90;;;;;;6304271;22;20010;-86
2023/01/16 13:08:11;;;;;;;5.87;2.10;;;4.20;99.90;;;;;;6304029;22;20452;-85
2023/01/16 13:14:10;;;;;;;5.77;2.90;;;4.30;99.90;;;;;;6306395;22;20476;-86
2023/01/16 13:16:55;;;;;;;7.67;3.13;;;;;;;;;;6304671;22;20065;-87
2023/01/16 13:19:42;;;;;;;5.17;2.40;;;4.30;99.90;;;;;;6306293;22;20010;-87
2023/01/16 13:22:34;;;;;;;4.83;2.80;;;4.30;99.90;;;;;;6303863;22;20061;-87
2023/01/16 13:25:26;;;;;;;4.57;2.57;;;4.30;99.90;;;;;;6304180;22;20014;-87
2023/01/16 13:28:17;;;;;;;5.33;2.60;;;;;;;;;;6305495;22;20223;-86
2023/01/16 13:31:07;;;;;;;7.10;2.80;;;4.30;99.90;;;;;;6305824;22;20010;-86
2023/01/16 13:33:57;;;;;;;4.87;2.93;;;4.30;99.90;;;;;;6304788;22;20026;-86
2023/01/16 13:36:41;;;;;;;8.80;4.57;;;;;;;;;;6304718;22;20127;-87
2023/01/16 13:39:38;;;;;;;6.03;3.90;;;;;;;;;;6305414;22;20015;-87
2023/01/16 13:42:25;;;;;;;6.87;3.87;;;4.40;99.90;;;;;;6306042;22;20441;-87
2023/01/16 13:48:31;;;;;;;5.10;2.80;;;4.40;99.90;;;;;;6306582;22;20018;-86
2023/01/16 13:51:19;;;;;;;7.03;3.17;;;4.40;99.90;;;;;;6308801;22;20014;-87
2023/01/16 13:54:05;;;;;;;5.27;3.27;;;;;;;;;;6306179;22;20022;-86
2023/01/16 13:57:20;;;;;;;7.20;3.43;;;4.50;99.90;;;;;;6283733;22;20073;-87
2023/01/16 14:00:13;;;;;;;4.67;2.80;;;4.90;99.90;;;;;;6305547;22;20092;-86
2023/01/16 14:03:20;;;;;;;4.70;2.90;;;4.50;99.90;;;;;;6261585;22;20018;-85
2023/01/16 14:06:11;;;;;;;4.97;2.90;;;;;;;;;;6305185;22;20060;-86
2023/01/16 14:09:04;;;;;;;5.67;3.00;;;;;;;;;;6305667;22;20014;-86
2023/01/16 14:12:20;;;;;;;4.70;2.65;;;4.50;99.90;;;;;;6305313;22;20045;-86
2023/01/16 14:18:42;;;;;;;5.07;3.03;;;4.50;99.90;;;;;;6306579;22;20083;-87
2023/01/16 14:21:40;;;;;;;3.90;2.20;;;4.50;99.90;;;;;;6305004;22;20057;-86
2023/01/16 14:24:24;;;;;;;4.17;2.80;;;;;;;;;;6304362;22;20014;-86
2023/01/16 14:27:14;;;;;;;4.63;2.77;;;4.50;99.90;;;;;;6305047;22;20010;-86
2023/01/16 14:30:04;;;;;;;6.23;3.20;;;4.50;99.90;;;;;;6306305;22;20014;-86
2023/01/16 14:32:53;;;;;;;5.87;3.23;;;4.50;99.90;;;;;;6304583;22;20058;-86
2023/01/16 14:35:44;;;;;;;5.73;2.50;;;4.50;99.90;;;;;;6305629;22;20065;-86
2023/01/16 14:38:31;;;;;;;5.33;2.47;;;4.50;99.90;;;;;;6304631;22;20014;-86
2023/01/16 14:57:19;;;;;;;8.27;3.73;;;4.50;99.90;;;;;;6306129;22;20015;-86
2023/01/16 15:00:14;;;;;;;7.00;3.60;;;4.60;99.90;;;;;;6304841;22;20069;-87
2023/01/16 15:03:16;;;;;;;10.20;4.68;;;4.50;99.90;;;;;;6306183;22;20064;-87
2023/01/16 15:06:04;;;;;;;8.90;3.70;;;;;;;;;;6305014;22;20018;-86
2023/01/16 15:08:49;;;;;;;6.33;3.73;;;;;;;;;;6305701;22;20014;-87
2023/01/16 15:11:45;;;;;;;7.03;2.90;;;4.50;99.90;;;;;;6305568;22;20025;-87
2023/01/16 15:14:30;;;;;;;5.03;2.90;;;;;;;;;;6306153;22;20061;-87
2023/01/16 15:23:40;;;;;;;5.53;3.10;;;;;;;;;;6306053;22;20084;-89
2023/01/16 15:26:37;;;;;;;6.07;2.90;;;4.60;99.90;;;;;;6283391;22;20490;-86
2023/01/16 15:29:36;;;;;;;5.00;2.97;;;4.50;99.90;;;;;;6306407;22;20017;-86
2023/01/16 15:32:22;;;;;;;5.80;2.60;;;;;;;;;;6306366;22;20069;-87
2023/01/16 15:35:16;;;;;;;4.73;2.57;;;;;;;;;;6307850;22;20057;-87
2023/01/16 15:38:03;;;;;;;7.00;2.70;;;4.50;99.90;;;;;;6307857;22;20061;-87
2023/01/16 15:40:50;;;;;;;5.53;2.50;;;4.50;99.90;;;;;;6307549;22;20009;-87
2023/01/16 15:46:43;;;;;;;6.07;2.60;;;4.90;99.90;;;;;;6305736;22;20038;-87
2023/01/16 15:49:34;;;;;;;4.20;2.40;;;;;;;;;;6297160;22;20014;-88
2023/01/16 15:52:19;;;;;;;5.60;2.53;;;;;;;;;;6289310;22;20081;-89
2023/01/16 15:55:28;;;;;;;5.90;2.63;;;4.60;99.90;;;;;;6296899;22;20564;-89
2023/01/16 15:58:24;;;;;;;4.73;2.57;;;;;;;;;;6295235;22;20068;-86
2023/01/16 16:01:09;;;;;;;7.17;3.13;;;4.60;99.90;;;;;;6292810;22;20015;-88
2023/01/16 16:03:54;;;;;;;5.23;3.10;;;;;;;;;;6306222;22;20108;-87
2023/01/16 16:06:40;;;;;;;6.13;3.53;;;4.50;99.90;;;;;;6306160;22;20090;-88
2023/01/16 16:09:26;;;;;;;6.87;3.53;;;;;;;;;;6271834;22;20137;-91
2023/01/16 16:12:11;;;;;;;3.80;3.07;;;;;;;;;;6290253;22;20065;-88
2023/01/16 16:18:28;;;;;;;6.03;3.20;;;;;;;;;;6295276;22;20022;-88
2023/01/16 16:21:13;;;;;;;7.30;3.40;;;4.50;99.90;;;;;;6298166;22;20112;-88
2023/01/16 16:24:05;;;;;;;4.43;3.23;;;;;;;;;;6289302;22;20054;-89
2023/01/16 16:26:50;;;;;;;7.03;3.53;;;;;;;;;;6289226;22;20013;-86
2023/01/16 16:29:35;;;;;;;4.83;3.50;;;4.60;99.90;;;;;;6293618;22;20014;-87
2023/01/16 16:32:20;;;;;;;4.90;3.67;;;;;;;;;;6281229;22;20065;-84
2023/01/16 16:35:05;;;;;;;5.93;3.13;;;;;;;;;;6284325;22;20064;-84
2023/01/16 16:37:49;;;;;;;11.33;5.40;;;;;;;;;;6305103;22;20011;-84
2023/01/16 16:40:34;;;;;;;8.20;4.63;;;4.40;99.90;;;;;;6306207;22;20018;-84
2023/01/16 16:43:51;;;;;;;11.00;5.70;;;4.40;99.90;;;;;;6284594;22;20084;-84
2023/01/16 16:46:39;;;;;;;7.70;3.70;;;4.40;99.90;;;;;;6306274;22;20053;-84
2023/01/16 16:49:24;;;;;;;5.97;3.10;;;;;;;;;;6305857;22;20015;-84
2023/01/16 16:52:21;;;;;;;4.87;2.87;;;4.40;99.90;;;;;;6306959;22;20022;-84
2023/01/16 16:55:36;;;;;;;4.50;3.10;;;4.10;99.90;;;;;;6305304;22;20042;-83
2023/01/16 16:58:23;;;;;;;3.40;2.77;;;4.30;99.90;;;;;;6306912;22;20068;-84
2023/01/16 17:01:14;;;;;;;4.00;3.00;;;4.30;99.90;;;;;;6305216;22;20072;-84
2023/01/16 17:04:03;;;;;;;4.63;2.77;;;4.20;99.90;;;;;;6306652;22;20065;-85
2023/01/16 17:06:47;;;;;;;3.80;2.70;;;;;;;;;;6306484;22;20052;-87
2023/01/16 17:09:34;;;;;;;5.93;3.40;;;;;;;;;;6283922;22;20357;-85
2023/01/16 17:12:22;;;;;;;5.30;3.40;;;4.20;99.90;;;;;;6305422;22;20515;-83
2023/01/16 17:15:10;;;;;;;5.17;3.50;;;4.20;99.90;;;;;;6306444;22;20060;-84
2023/01/16 17:17:58;;;;;;;5.83;3.50;;;;;;;;;;6306676;22;20022;-83
2023/01/16 17:20:43;;;;;;;4.90;3.70;;;4.20;99.90;;;;;;6305838;22;20448;-83
2023/01/16 17:23:28;;;;;;;5.30;3.97;;;;;;;;;;6305816;22;20050;-86
2023/01/16 17:26:15;;;;;;;5.70;3.80;;;;;;;;;;6306665;22;20019;-86
2023/01/16 17:28:59;;;;;;;5.60;3.70;;;;;;;;;;6305235;22;20018;-85
2023/01/16 17:31:44;;;;;;;5.17;3.83;;;4.20;99.90;;;;;;6306907;22;20078;-86
2023/01/16 17:34:29;;;;;;;6.23;4.00;;;;;;;;;;6306993;22;20484;-86